createdAt,value
2018-02-16T00:01:17.987Z,40.12
2018-02-16T00:04:19.886Z,40.01
2018-02-16T00:07:21.784Z,40.16
2018-02-16T00:10:23.770Z,40.19
2018-02-16T00:13:25.675Z,40.19
2018-02-16T00:16:27.674Z,40.18
2018-02-16T00:19:29.671Z,40.22
2018-02-16T00:22:31.672Z,40.20
2018-02-16T00:25:33.668Z,40.30
2018-02-16T00:28:35.561Z,40.30
2018-02-16T00:31:37.488Z,40.24
2018-02-16T00:34:40.070Z,40.29
2018-02-16T00:37:42.986Z,40.29
2018-02-16T00:40:44.891Z,40.32
2018-02-16T00:43:46.883Z,40.28
2018-02-16T00:46:48.879Z,40.28
2018-02-16T00:49:50.775Z,40.32
2018-02-16T00:52:52.772Z,40.37
2018-02-16T00:55:54.671Z,40.31
2018-02-16T00:58:56.992Z,40.30
2018-02-16T01:01:58.980Z,40.35
2018-02-16T01:05:01.034Z,40.29
2018-02-16T01:08:02.963Z,40.40
2018-02-16T01:11:04.959Z,40.37
2018-02-16T01:14:06.855Z,40.45
2018-02-16T01:17:08.750Z,40.34
2018-02-16T01:20:10.634Z,40.34
2018-02-16T01:23:12.543Z,40.52
2018-02-16T01:26:14.451Z,40.35
2018-02-16T01:29:16.443Z,40.41
2018-02-16T01:32:18.422Z,40.44
2018-02-16T01:35:21.346Z,40.39
2018-02-16T01:38:23.242Z,40.45
2018-02-16T01:41:25.140Z,40.48
2018-02-16T01:44:28.055Z,40.55
2018-02-16T01:47:29.951Z,40.47
2018-02-16T01:50:32.019Z,40.48
2018-02-16T01:53:33.954Z,40.51
2018-02-16T01:56:35.990Z,40.57
2018-02-16T01:59:39.894Z,40.52
2018-02-16T02:02:42.032Z,40.43
2018-02-16T02:05:43.991Z,40.50
2018-02-16T02:08:46.090Z,40.48
2018-02-16T02:11:47.996Z,40.63
2018-02-16T02:14:49.990Z,40.59
2018-02-16T02:17:51.907Z,40.55
2018-02-16T02:20:53.884Z,40.58
2018-02-16T02:23:56.014Z,40.48
2018-02-16T02:26:57.983Z,40.58
2018-02-16T02:29:59.972Z,40.54
2018-02-16T02:33:01.868Z,40.55
2018-02-16T02:36:03.868Z,40.64
2018-02-16T02:39:05.770Z,40.56
2018-02-16T02:42:07.655Z,40.52
2018-02-16T02:45:09.550Z,40.63
2018-02-16T02:48:11.460Z,40.68
2018-02-16T02:51:13.343Z,40.67
2018-02-16T02:54:15.344Z,40.64
2018-02-16T02:57:18.268Z,40.63
2018-02-16T03:00:20.357Z,40.67
2018-02-16T03:03:22.255Z,40.68
2018-02-16T03:06:24.164Z,40.68
2018-02-16T03:09:26.152Z,40.71
2018-02-16T03:12:28.143Z,40.72
2018-02-16T03:15:30.045Z,40.65
2018-02-16T03:18:31.938Z,40.71
2018-02-16T03:21:33.831Z,40.64
2018-02-16T03:24:35.730Z,40.69
2018-02-16T03:27:37.635Z,40.57
2018-02-16T03:30:39.523Z,40.70
2018-02-16T03:33:41.510Z,40.68
2018-02-16T03:36:43.411Z,40.79
2018-02-16T03:39:45.312Z,40.76
2018-02-16T03:42:47.320Z,40.71
2018-02-16T03:45:49.333Z,40.68
2018-02-16T03:48:51.303Z,40.77
2018-02-16T03:51:53.302Z,40.78
2018-02-16T03:54:55.299Z,40.72
2018-02-16T03:57:57.296Z,40.84
2018-02-16T04:00:59.190Z,40.79
2018-02-16T04:04:01.083Z,40.82
2018-02-16T04:07:04.009Z,40.78
2018-02-16T04:10:06.004Z,40.85
2018-02-16T04:13:07.899Z,40.85
2018-02-16T04:16:10.083Z,40.88
2018-02-16T04:19:11.996Z,40.85
2018-02-16T04:22:13.891Z,40.83
2018-02-16T04:25:15.784Z,40.73
2018-02-16T04:28:17.666Z,40.85
2018-02-16T04:31:19.555Z,40.88
2018-02-16T04:34:21.447Z,40.85
2018-02-16T04:37:23.340Z,40.96
2018-02-16T04:40:25.235Z,40.80
2018-02-16T04:43:27.114Z,40.87
2018-02-16T04:46:30.084Z,40.78
2018-02-16T04:49:31.980Z,40.77
2018-02-16T04:52:33.879Z,40.84
2018-02-16T04:55:35.766Z,40.79
2018-02-16T04:58:37.650Z,40.82
2018-02-16T05:01:39.563Z,40.75
2018-02-16T05:04:41.445Z,40.67
2018-02-16T05:07:43.348Z,40.77
2018-02-16T05:10:45.236Z,40.77
2018-02-16T05:13:47.130Z,40.70
2018-02-16T05:16:49.016Z,40.71
2018-02-16T05:19:50.903Z,40.59
2018-02-16T05:22:52.803Z,40.58
2018-02-16T05:25:54.689Z,40.52
2018-02-16T05:28:57.644Z,40.47
2018-02-16T05:31:59.538Z,40.43
2018-02-16T05:35:03.508Z,40.35
2018-02-16T05:38:05.482Z,40.30
2018-02-16T05:41:07.371Z,40.35
2018-02-16T05:44:09.292Z,40.14
2018-02-16T05:47:11.182Z,40.27
2018-02-16T05:50:13.079Z,40.15
2018-02-16T05:53:14.958Z,40.19
2018-02-16T05:56:16.847Z,40.25
2018-02-16T05:59:19.784Z,40.33
2018-02-16T06:02:21.671Z,40.31
2018-02-16T06:05:23.562Z,40.23
2018-02-16T06:08:25.459Z,40.17
2018-02-16T06:11:27.362Z,40.18
2018-02-16T06:14:29.247Z,40.27
2018-02-16T06:17:33.156Z,40.04
2018-02-16T06:20:35.047Z,40.27
2018-02-16T06:23:38.934Z,40.17
2018-02-16T06:26:40.831Z,40.05
2018-02-16T06:29:42.719Z,40.26
2018-02-16T06:32:44.603Z,40.18
2018-02-16T06:35:48.563Z,40.15
2018-02-16T06:38:50.455Z,40.11
2018-02-16T06:41:52.356Z,40.14
2018-02-16T06:44:55.279Z,40.05
2018-02-16T06:47:58.203Z,40.06
2018-02-16T06:51:00.203Z,40.13
2018-02-16T06:54:02.083Z,40.05
2018-02-16T06:57:04.075Z,40.03
2018-02-16T07:00:05.883Z,39.97
2018-02-16T07:03:07.763Z,40.09
2018-02-16T07:06:09.651Z,39.94
2018-02-16T07:09:11.536Z,39.99
2018-02-16T07:12:14.008Z,39.92
2018-02-16T07:15:15.900Z,39.94
2018-02-16T07:18:17.778Z,39.93
2018-02-16T07:21:20.696Z,39.91
2018-02-16T07:24:22.587Z,39.80
2018-02-16T07:27:25.467Z,39.84
2018-02-16T07:30:29.450Z,39.82
2018-02-16T07:33:31.379Z,39.87
2018-02-16T07:36:33.267Z,40.01
2018-02-16T07:39:35.170Z,40.22
2018-02-16T07:42:37.148Z,40.17
2018-02-16T07:45:39.045Z,40.31
2018-02-16T07:48:41.035Z,40.15
2018-02-16T07:51:43.036Z,40.30
2018-02-16T07:54:45.032Z,39.87
2018-02-16T07:57:47.070Z,39.35
2018-02-16T08:00:49.077Z,39.25
2018-02-16T08:03:51.251Z,39.08
2018-02-16T08:06:53.234Z,38.95
2018-02-16T08:09:55.224Z,38.92
2018-02-16T08:12:57.124Z,39.08
2018-02-16T08:15:59.119Z,39.17
2018-02-16T08:19:01.109Z,39.19
2018-02-16T08:22:03.006Z,39.19
2018-02-16T08:25:04.912Z,39.20
2018-02-16T08:28:06.905Z,39.27
2018-02-16T08:31:08.794Z,39.24
2018-02-16T08:34:10.691Z,39.19
2018-02-16T08:37:12.588Z,39.20
2018-02-16T08:40:14.483Z,39.30
2018-02-16T08:43:17.415Z,39.34
2018-02-16T08:46:19.399Z,39.22
2018-02-16T08:49:22.344Z,39.37
2018-02-16T08:52:24.315Z,39.40
2018-02-16T08:55:26.198Z,39.47
2018-02-16T08:58:28.095Z,39.64
2018-02-16T09:01:29.982Z,39.86
2018-02-16T09:04:31.874Z,40.27
2018-02-16T09:07:33.771Z,40.20
2018-02-16T09:10:35.660Z,40.40
2018-02-16T09:13:37.659Z,40.50
2018-02-16T09:16:39.551Z,40.55
2018-02-16T09:19:41.431Z,40.58
2018-02-16T09:22:43.324Z,40.51
2018-02-16T09:25:45.223Z,40.00
2018-02-16T09:28:47.116Z,39.51
2018-02-16T09:31:49.628Z,39.74
2018-02-16T09:34:51.510Z,40.02
2018-02-16T09:37:53.444Z,40.32
2018-02-16T09:40:55.343Z,40.59
2018-02-16T09:43:57.426Z,40.10
2018-02-16T09:47:00.318Z,40.30
2018-02-16T09:50:03.245Z,40.72
2018-02-16T09:53:05.145Z,40.43
2018-02-16T09:56:07.133Z,40.16
2018-02-16T09:59:09.027Z,39.99
2018-02-16T10:02:11.032Z,40.06
2018-02-16T10:05:13.014Z,39.96
2018-02-16T10:08:15.031Z,39.86
2018-02-16T10:11:17.016Z,39.94
2018-02-16T10:14:19.048Z,39.93
2018-02-16T10:17:21.038Z,39.91
2018-02-16T10:20:23.016Z,39.89
2018-02-16T10:23:24.911Z,39.67
2018-02-16T10:26:26.806Z,40.15
2018-02-16T10:29:28.735Z,40.21
2018-02-16T10:32:30.694Z,40.41
2018-02-16T10:35:32.614Z,40.33
2018-02-16T10:38:34.596Z,45.54
2018-02-16T10:41:36.596Z,40.38
2018-02-16T10:44:39.552Z,39.76
2018-02-16T10:47:41.518Z,38.12
2018-02-16T10:50:43.508Z,39.00
2018-02-16T10:53:45.398Z,39.14
2018-02-16T10:56:47.319Z,39.94
2018-02-16T10:59:49.323Z,39.74
2018-02-16T11:02:55.475Z,39.33
2018-02-16T11:05:57.392Z,39.55
2018-02-16T11:09:03.559Z,39.32
2018-02-16T11:12:08.985Z,39.13
2018-02-16T11:15:10.966Z,39.19
2018-02-16T11:18:16.975Z,39.07
2018-02-16T11:21:19.011Z,39.40
2018-02-16T11:24:20.959Z,39.36
2018-02-16T11:27:22.854Z,39.31
2018-02-16T11:30:24.750Z,39.40
2018-02-16T11:33:26.751Z,39.55
2018-02-16T11:36:28.641Z,39.89
2018-02-16T11:39:30.607Z,40.26
2018-02-16T11:42:33.507Z,39.42
2018-02-16T11:45:35.450Z,39.84
2018-02-16T11:48:37.360Z,39.88
2018-02-16T11:51:39.347Z,39.83
2018-02-16T11:54:42.279Z,39.74
2018-02-16T11:57:44.263Z,40.04
2018-02-16T12:00:46.171Z,39.75
2018-02-16T12:03:48.156Z,39.70
2018-02-16T12:06:50.064Z,39.80
2018-02-16T17:46:34.913Z,33.82
